createdAt,value
2018-03-31T00:00:01.941Z,0.00
2018-03-31T00:01:01.711Z,0.00
2018-03-31T00:02:02.560Z,0.00
2018-03-31T00:03:01.117Z,0.00
2018-03-31T00:04:02.595Z,0.00
2018-03-31T00:05:01.121Z,0.00
2018-03-31T00:06:01.011Z,0.00
2018-03-31T00:07:00.958Z,0.00
2018-03-31T00:08:01.144Z,0.00
2018-03-31T00:09:01.004Z,0.00
2018-03-31T00:10:00.592Z,0.00
2018-03-31T00:11:01.442Z,0.00
2018-03-31T00:12:00.923Z,0.00
2018-03-31T00:13:00.572Z,0.00
2018-03-31T00:14:00.708Z,0.00
2018-03-31T00:15:00.664Z,0.00
2018-03-31T00:16:00.316Z,0.00
2018-03-31T00:17:02.341Z,0.00
2018-03-31T00:18:01.090Z,0.00
2018-03-31T00:19:01.230Z,0.00
2018-03-31T00:20:01.418Z,0.00
2018-03-31T00:21:00.494Z,0.00
2018-03-31T00:22:00.758Z,0.00
2018-03-31T00:23:00.501Z,0.00
2018-03-31T00:24:00.655Z,0.00
2018-03-31T00:24:59.905Z,0.00
2018-03-31T00:26:00.057Z,0.00
2018-03-31T00:26:59.812Z,0.00
2018-03-31T00:28:00.077Z,0.00
2018-03-31T00:28:59.730Z,0.00
2018-03-31T00:29:59.690Z,0.00
2018-03-31T00:30:59.641Z,0.00
2018-03-31T00:31:59.599Z,0.00
2018-03-31T00:32:59.554Z,0.00
2018-03-31T00:33:59.808Z,0.00
2018-03-31T00:34:59.463Z,0.00
2018-03-31T00:35:59.409Z,0.00
2018-03-31T00:37:00.746Z,0.00
2018-03-31T00:37:59.318Z,0.00
2018-03-31T00:38:59.332Z,0.00
2018-03-31T00:39:59.529Z,0.00
2018-03-31T00:40:59.185Z,0.00
2018-03-31T00:41:59.139Z,0.00
2018-03-31T00:42:59.294Z,0.00
2018-03-31T00:43:59.051Z,0.00
2018-03-31T00:44:59.005Z,0.00
2018-03-31T00:45:59.261Z,0.00
2018-03-31T00:46:58.915Z,0.00
2018-03-31T00:47:58.875Z,0.00
2018-03-31T00:48:58.824Z,0.00
2018-03-31T00:49:58.781Z,0.00
2018-03-31T00:50:58.735Z,0.00
2018-03-31T00:51:59.002Z,0.00
2018-03-31T00:52:58.664Z,0.00
2018-03-31T00:53:58.664Z,0.00
2018-03-31T00:54:58.566Z,0.00
2018-03-31T00:55:58.525Z,0.00
2018-03-31T00:56:58.477Z,0.00
2018-03-31T00:57:58.438Z,0.00
2018-03-31T00:58:58.687Z,0.00
2018-03-31T00:59:58.435Z,0.00
2018-03-31T01:00:58.298Z,0.00
2018-03-31T01:01:58.241Z,0.00
2018-03-31T01:02:58.199Z,0.00
2018-03-31T01:03:58.153Z,0.00
2018-03-31T01:04:58.104Z,0.00
2018-03-31T01:05:58.363Z,0.00
2018-03-31T01:06:58.017Z,0.00
2018-03-31T01:07:57.989Z,0.00
2018-03-31T01:08:57.937Z,0.00
2018-03-31T01:09:57.899Z,0.00
2018-03-31T01:10:57.895Z,0.00
2018-03-31T01:11:57.804Z,0.00
2018-03-31T01:12:58.058Z,0.00
2018-03-31T01:13:57.713Z,0.00
2018-03-31T01:14:57.667Z,0.00
2018-03-31T01:15:57.626Z,0.00
2018-03-31T01:16:57.778Z,0.00
2018-03-31T01:17:57.537Z,0.00
2018-03-31T01:18:57.500Z,0.00
2018-03-31T01:19:57.745Z,0.00
2018-03-31T01:20:57.400Z,0.00
2018-03-31T01:21:57.361Z,0.00
2018-03-31T01:22:57.415Z,0.00
2018-03-31T01:23:57.255Z,0.00
2018-03-31T01:24:57.210Z,0.00
2018-03-31T01:25:57.164Z,0.00
2018-03-31T01:26:57.420Z,0.00
2018-03-31T01:27:57.120Z,0.00
2018-03-31T01:28:57.030Z,0.00
2018-03-31T01:29:56.984Z,0.00
2018-03-31T01:30:56.968Z,0.00
2018-03-31T01:31:56.906Z,0.00
2018-03-31T01:32:56.861Z,0.00
2018-03-31T01:33:57.116Z,0.00
2018-03-31T01:34:56.771Z,0.00
2018-03-31T01:35:56.726Z,0.00
2018-03-31T01:36:56.702Z,0.00
2018-03-31T01:37:56.638Z,0.00
2018-03-31T01:38:56.593Z,0.00
2018-03-31T01:39:56.887Z,0.00
2018-03-31T01:40:56.490Z,0.00
2018-03-31T01:41:56.445Z,0.00
2018-03-31T01:42:56.403Z,0.00
2018-03-31T01:43:56.359Z,0.00
2018-03-31T01:44:56.653Z,0.00
2018-03-31T01:45:56.569Z,0.00
2018-03-31T01:46:56.223Z,0.00
2018-03-31T01:47:56.178Z,0.00
2018-03-31T01:48:56.131Z,0.00
2018-03-31T01:49:56.086Z,0.00
2018-03-31T01:50:56.044Z,0.00
2018-03-31T01:51:56.401Z,0.00
2018-03-31T01:52:55.953Z,0.00
2018-03-31T01:53:55.907Z,0.00
2018-03-31T01:54:55.872Z,0.00
2018-03-31T01:55:55.838Z,0.00
2018-03-31T01:56:55.779Z,0.00
2018-03-31T01:57:56.187Z,0.00
2018-03-31T01:58:55.696Z,0.00
2018-03-31T01:59:55.652Z,0.00
2018-03-31T02:00:55.611Z,0.00
2018-03-31T02:01:55.561Z,0.00
2018-03-31T02:02:55.514Z,0.00
2018-03-31T02:03:55.755Z,0.00
2018-03-31T02:04:55.409Z,0.00
2018-03-31T02:05:55.364Z,0.00
2018-03-31T02:06:55.322Z,0.00
2018-03-31T02:07:55.275Z,0.00
2018-03-31T02:08:55.277Z,0.00
2018-03-31T02:09:55.182Z,0.00
2018-03-31T02:10:55.576Z,0.00
2018-03-31T02:11:55.103Z,0.00
2018-03-31T02:12:55.061Z,0.00
2018-03-31T02:13:55.012Z,0.00
2018-03-31T02:14:55.117Z,0.00
2018-03-31T02:15:54.924Z,0.00
2018-03-31T02:16:54.885Z,0.00
2018-03-31T02:17:55.131Z,0.00
2018-03-31T02:18:54.785Z,0.00
2018-03-31T02:19:54.748Z,0.00
2018-03-31T02:20:54.694Z,0.00
2018-03-31T02:21:54.651Z,0.00
2018-03-31T02:22:54.605Z,0.00
2018-03-31T02:23:54.559Z,0.00
2018-03-31T02:24:54.812Z,0.00
2018-03-31T02:25:54.519Z,0.00
2018-03-31T02:26:54.426Z,0.00
2018-03-31T02:27:54.367Z,0.00
2018-03-31T02:28:54.322Z,0.00
2018-03-31T02:29:54.278Z,0.00
2018-03-31T02:30:54.230Z,0.00
2018-03-31T02:31:54.540Z,0.00
2018-03-31T02:32:54.137Z,0.00
2018-03-31T02:33:54.093Z,0.00
2018-03-31T02:34:54.050Z,0.00
2018-03-31T02:35:54.002Z,0.00
2018-03-31T02:36:53.956Z,0.00
2018-03-31T02:37:53.961Z,0.00
2018-03-31T02:38:54.164Z,0.00
2018-03-31T02:39:53.867Z,0.00
2018-03-31T02:40:53.779Z,0.00
2018-03-31T02:41:53.729Z,0.00
2018-03-31T02:42:53.682Z,0.00
2018-03-31T02:43:53.650Z,0.00
2018-03-31T02:44:53.903Z,0.00
2018-03-31T02:45:53.553Z,0.00
2018-03-31T02:46:53.508Z,0.00
2018-03-31T02:47:53.462Z,0.00
2018-03-31T02:48:53.466Z,0.00
2018-03-31T02:49:53.369Z,0.00
2018-03-31T02:50:53.623Z,0.00
2018-03-31T02:51:53.279Z,0.00
2018-03-31T02:52:53.235Z,0.00
2018-03-31T02:53:53.189Z,0.00
2018-03-31T02:54:53.194Z,0.00
2018-03-31T02:55:53.096Z,0.00
2018-03-31T02:56:53.349Z,0.00
2018-03-31T02:57:53.004Z,0.00
2018-03-31T02:58:52.958Z,0.00
2018-03-31T02:59:52.902Z,0.00
2018-03-31T03:00:52.857Z,0.00
2018-03-31T03:01:52.817Z,0.00
2018-03-31T03:02:53.065Z,0.00
2018-03-31T03:03:52.721Z,0.00
2018-03-31T03:04:52.678Z,0.00
2018-03-31T03:05:52.935Z,0.00
2018-03-31T03:06:52.582Z,0.00
2018-03-31T03:07:52.550Z,0.00
2018-03-31T03:08:52.810Z,0.00
2018-03-31T03:09:52.461Z,0.00
2018-03-31T03:10:52.410Z,0.00
2018-03-31T03:11:52.416Z,0.00
2018-03-31T03:12:52.320Z,0.00
2018-03-31T03:13:52.274Z,0.00
2018-03-31T03:14:52.534Z,0.00
2018-03-31T03:15:52.175Z,0.00
2018-03-31T03:16:52.129Z,0.00
2018-03-31T03:17:52.183Z,0.00
2018-03-31T03:18:52.037Z,0.00
2018-03-31T03:19:51.998Z,0.00
2018-03-31T03:20:51.946Z,0.00
2018-03-31T03:21:52.202Z,0.00
2018-03-31T03:22:51.857Z,0.00
2018-03-31T03:23:51.869Z,0.00
2018-03-31T03:24:51.764Z,0.00
2018-03-31T03:25:51.720Z,0.00
2018-03-31T03:26:51.673Z,0.00
2018-03-31T03:27:51.628Z,0.00
2018-03-31T03:28:51.888Z,0.00
2018-03-31T03:29:51.590Z,0.00
2018-03-31T03:30:51.495Z,0.00
2018-03-31T03:31:51.459Z,0.00
2018-03-31T03:32:51.411Z,0.00
2018-03-31T03:33:51.365Z,0.00
2018-03-31T03:34:51.320Z,0.00
2018-03-31T03:35:51.575Z,0.00
2018-03-31T03:36:51.232Z,0.00
2018-03-31T03:37:51.184Z,0.00
2018-03-31T03:38:51.141Z,0.00
2018-03-31T03:39:51.084Z,0.00
2018-03-31T03:40:51.088Z,0.00
2018-03-31T03:41:50.993Z,0.00
2018-03-31T03:42:51.247Z,0.00
2018-03-31T03:43:50.902Z,0.00
2018-03-31T03:44:50.855Z,0.00
2018-03-31T03:45:50.810Z,0.00
2018-03-31T03:46:50.868Z,0.00
2018-03-31T03:47:50.736Z,0.00
2018-03-31T03:48:50.692Z,0.00
2018-03-31T03:49:50.942Z,0.00
2018-03-31T03:50:50.595Z,0.00
2018-03-31T03:51:50.549Z,0.00
2018-03-31T03:52:50.504Z,0.00
2018-03-31T03:53:50.461Z,0.00
2018-03-31T03:54:50.413Z,0.00
2018-03-31T03:55:50.668Z,0.00
2018-03-31T03:56:50.323Z,0.00
2018-03-31T03:57:50.585Z,0.00
2018-03-31T03:58:50.234Z,0.00
2018-03-31T03:59:50.187Z,0.00
2018-03-31T04:00:50.141Z,0.00
2018-03-31T04:01:50.395Z,0.00
2018-03-31T04:02:50.052Z,0.00
2018-03-31T04:03:50.195Z,0.00
2018-03-31T04:04:49.951Z,0.00
2018-03-31T04:05:49.906Z,0.00
2018-03-31T04:06:49.861Z,0.00
2018-03-31T04:07:50.116Z,0.00
2018-03-31T04:08:49.774Z,0.00
2018-03-31T04:09:49.877Z,0.00
2018-03-31T04:10:49.679Z,0.00
2018-03-31T04:11:49.646Z,0.00
2018-03-31T04:12:49.599Z,0.00
2018-03-31T04:13:49.854Z,0.00
2018-03-31T04:14:49.512Z,0.00
2018-03-31T04:15:49.465Z,0.00
2018-03-31T04:16:49.421Z,0.00
2018-03-31T04:17:49.374Z,0.00
2018-03-31T04:18:49.327Z,0.00
2018-03-31T04:19:49.574Z,0.00
2018-03-31T04:20:49.330Z,0.00
2018-03-31T04:21:49.183Z,0.00
2018-03-31T04:22:49.139Z,0.00
2018-03-31T04:23:49.096Z,0.00
2018-03-31T04:24:49.046Z,0.00
2018-03-31T04:25:49.303Z,0.00
2018-03-31T04:26:49.058Z,0.00
2018-03-31T04:27:48.918Z,0.00
2018-03-31T04:28:48.866Z,0.00
2018-03-31T04:29:48.824Z,0.00
2018-03-31T04:30:48.776Z,0.00
2018-03-31T04:31:48.732Z,0.00
2018-03-31T04:32:48.986Z,0.00
2018-03-31T04:33:48.641Z,0.00
2018-03-31T04:34:48.595Z,0.00
2018-03-31T04:35:48.569Z,0.00
2018-03-31T04:36:48.518Z,0.00
2018-03-31T04:37:48.521Z,0.00
2018-03-31T04:38:48.426Z,0.00
2018-03-31T04:39:48.680Z,0.00
2018-03-31T04:40:48.340Z,0.00
2018-03-31T04:41:48.290Z,0.00
2018-03-31T04:42:48.246Z,0.00
2018-03-31T04:43:48.243Z,0.00
2018-03-31T04:44:48.150Z,0.00
2018-03-31T04:45:48.101Z,0.00
2018-03-31T04:46:48.358Z,0.00
2018-03-31T04:47:48.011Z,0.00
2018-03-31T04:48:47.965Z,0.00
2018-03-31T04:49:47.927Z,0.00
2018-03-31T04:50:47.895Z,0.00
2018-03-31T04:51:47.844Z,0.00
2018-03-31T04:52:47.796Z,0.00
2018-03-31T04:53:48.050Z,0.00
2018-03-31T04:54:47.763Z,0.00
2018-03-31T04:55:47.662Z,0.00
2018-03-31T04:56:47.616Z,0.00
2018-03-31T04:57:47.573Z,0.00
2018-03-31T04:58:47.527Z,0.00
2018-03-31T04:59:47.481Z,0.00
2018-03-31T05:00:47.736Z,0.00
2018-03-31T05:01:47.394Z,0.00
2018-03-31T05:02:47.346Z,0.00
2018-03-31T05:03:47.305Z,0.00
2018-03-31T05:04:47.257Z,0.00
2018-03-31T05:05:47.215Z,5.63
2018-03-31T05:06:47.567Z,5.63
2018-03-31T05:07:47.109Z,5.63
2018-03-31T05:08:47.066Z,5.63
2018-03-31T05:09:47.021Z,5.63
2018-03-31T05:10:46.977Z,5.63
2018-03-31T05:11:46.932Z,5.63
2018-03-31T05:12:47.185Z,5.63
2018-03-31T05:13:46.843Z,11.25
2018-03-31T05:14:46.801Z,11.25
2018-03-31T05:15:46.808Z,11.25
2018-03-31T05:16:46.715Z,11.25
2018-03-31T05:17:46.721Z,16.88
2018-03-31T05:18:46.929Z,16.88
2018-03-31T05:19:46.582Z,16.88
2018-03-31T05:20:46.537Z,22.50
2018-03-31T05:21:46.502Z,22.50
2018-03-31T05:22:46.447Z,22.50
2018-03-31T05:23:46.392Z,28.13
2018-03-31T05:24:46.648Z,28.13
2018-03-31T05:25:46.303Z,28.13
2018-03-31T05:26:46.256Z,28.13
2018-03-31T05:27:46.212Z,33.75
2018-03-31T05:28:46.219Z,33.75
2018-03-31T05:29:46.123Z,39.38
2018-03-31T05:30:46.376Z,39.38
2018-03-31T05:31:46.032Z,39.38
2018-03-31T05:32:45.987Z,45.00
2018-03-31T05:33:45.942Z,50.63
2018-03-31T05:34:45.951Z,50.63
2018-03-31T05:35:45.852Z,56.25
2018-03-31T05:36:46.108Z,61.88
2018-03-31T05:37:45.764Z,61.88
2018-03-31T05:38:45.719Z,67.50
2018-03-31T05:39:45.681Z,73.13
2018-03-31T05:40:45.686Z,78.75
2018-03-31T05:41:45.613Z,84.38
2018-03-31T05:42:45.550Z,90.00
2018-03-31T05:43:45.807Z,90.00
2018-03-31T05:44:45.461Z,95.63
2018-03-31T05:45:45.419Z,101.25
2018-03-31T05:46:45.369Z,106.88
2018-03-31T05:47:45.314Z,106.88
2018-03-31T05:48:45.269Z,112.50
2018-03-31T05:49:45.231Z,118.13
2018-03-31T05:50:45.480Z,123.75
2018-03-31T05:51:45.192Z,129.38
2018-03-31T05:52:45.088Z,135.00
2018-03-31T05:53:45.048Z,140.63
2018-03-31T05:54:45.017Z,146.25
2018-03-31T05:55:44.972Z,146.25
2018-03-31T05:56:44.921Z,146.25
2018-03-31T05:57:45.176Z,146.25
2018-03-31T05:58:44.830Z,151.88
2018-03-31T05:59:44.786Z,151.88
2018-03-31T06:00:44.745Z,157.50
2018-03-31T06:01:44.701Z,163.13
2018-03-31T06:02:44.653Z,168.75
2018-03-31T06:03:44.613Z,168.75
2018-03-31T06:04:44.865Z,174.38
2018-03-31T06:05:44.522Z,180.00
2018-03-31T06:06:44.484Z,180.00
2018-03-31T06:07:44.431Z,185.63
2018-03-31T06:08:44.434Z,185.63
2018-03-31T06:09:44.341Z,185.63
2018-03-31T06:10:44.301Z,185.63
2018-03-31T06:11:44.548Z,185.63
2018-03-31T06:12:44.198Z,185.63
2018-03-31T06:13:44.154Z,185.63
2018-03-31T06:14:45.704Z,191.25
2018-03-31T06:15:44.697Z,196.88
2018-03-31T06:16:44.174Z,202.50
2018-03-31T06:17:44.506Z,208.13
2018-03-31T06:18:45.201Z,219.38
2018-03-31T06:19:44.297Z,225.00
2018-03-31T06:20:44.033Z,236.25
2018-03-31T06:21:45.131Z,247.50
2018-03-31T06:22:44.157Z,258.75
2018-03-31T06:23:44.022Z,264.38
2018-03-31T06:24:43.675Z,264.38
2018-03-31T06:25:43.631Z,270.00
2018-03-31T06:26:43.588Z,270.00
2018-03-31T06:27:43.540Z,270.00
2018-03-31T06:28:43.489Z,275.63
2018-03-31T06:29:43.746Z,281.25
2018-03-31T06:30:43.450Z,286.88
2018-03-31T06:31:43.356Z,286.88
2018-03-31T06:32:43.324Z,298.13
2018-03-31T06:33:43.270Z,298.13
2018-03-31T06:34:43.227Z,309.38
2018-03-31T06:35:43.494Z,331.88
2018-03-31T06:36:43.137Z,354.38
2018-03-31T06:37:43.099Z,371.25
2018-03-31T06:38:43.049Z,393.75
2018-03-31T06:39:43.006Z,393.75
2018-03-31T06:40:42.963Z,405.00
2018-03-31T06:41:43.268Z,410.63
2018-03-31T06:42:42.877Z,416.25
2018-03-31T06:43:42.840Z,410.63
2018-03-31T06:44:42.797Z,416.25
2018-03-31T06:45:42.753Z,416.25
2018-03-31T06:46:42.847Z,444.38
2018-03-31T06:47:42.966Z,450.00
2018-03-31T06:48:42.622Z,466.88
2018-03-31T06:49:42.578Z,483.75
2018-03-31T06:50:42.540Z,500.63
2018-03-31T06:51:42.482Z,500.63
2018-03-31T06:52:42.453Z,472.50
2018-03-31T06:53:42.395Z,444.38
2018-03-31T06:54:42.670Z,433.13
2018-03-31T06:55:42.359Z,444.38
2018-03-31T06:56:42.315Z,495.00
2018-03-31T06:57:42.272Z,545.63
2018-03-31T06:58:42.184Z,556.88
2018-03-31T06:59:42.144Z,579.38
2018-03-31T07:00:42.102Z,652.50
2018-03-31T07:01:42.511Z,742.50
2018-03-31T07:02:42.165Z,731.25
2018-03-31T07:03:41.972Z,731.25
2018-03-31T07:04:41.977Z,770.63
2018-03-31T07:05:41.887Z,736.88
2018-03-31T07:06:41.891Z,765.00
2018-03-31T07:07:41.853Z,770.63
2018-03-31T07:08:42.068Z,793.13
2018-03-31T07:09:41.711Z,787.50
2018-03-31T07:10:41.669Z,804.38
2018-03-31T07:11:41.625Z,742.50
2018-03-31T07:12:41.632Z,781.88
2018-03-31T07:13:41.559Z,860.63
2018-03-31T07:14:41.500Z,810.00
2018-03-31T07:15:41.747Z,888.75
2018-03-31T07:16:41.400Z,978.75
2018-03-31T07:17:41.418Z,1074.38
2018-03-31T07:18:41.316Z,1299.38
2018-03-31T07:19:41.272Z,1226.25
2018-03-31T07:20:41.232Z,1102.50
2018-03-31T07:21:41.290Z,922.50
2018-03-31T07:22:43.337Z,1012.50
2018-03-31T07:23:41.379Z,1136.25
2018-03-31T07:24:41.724Z,1158.75
2018-03-31T07:25:41.449Z,793.13
2018-03-31T07:26:41.144Z,1006.88
2018-03-31T07:27:40.996Z,984.38
2018-03-31T07:28:40.905Z,1113.75
2018-03-31T07:29:41.164Z,1040.63
2018-03-31T07:30:40.821Z,1141.88
2018-03-31T07:31:40.818Z,1226.25
2018-03-31T07:32:40.775Z,1321.88
2018-03-31T07:33:40.687Z,1518.75
2018-03-31T07:34:40.693Z,1552.50
2018-03-31T07:35:40.901Z,1546.88
2018-03-31T07:36:40.719Z,1361.25
2018-03-31T07:37:40.717Z,1248.75
2018-03-31T07:38:40.479Z,1372.50
2018-03-31T07:39:40.588Z,1355.63
2018-03-31T07:40:40.411Z,1271.25
2018-03-31T07:41:40.705Z,1372.50
2018-03-31T07:42:40.361Z,1659.38
2018-03-31T07:43:40.319Z,1788.75
2018-03-31T07:44:40.429Z,1546.88
2018-03-31T07:45:40.190Z,1524.38
2018-03-31T07:46:40.202Z,1338.75
2018-03-31T07:47:40.419Z,1158.75
2018-03-31T07:48:40.097Z,1327.50
2018-03-31T07:49:40.247Z,1940.63
2018-03-31T07:50:39.998Z,1749.38
2018-03-31T07:51:40.165Z,1490.63
2018-03-31T07:52:39.966Z,1980.00
2018-03-31T07:53:40.177Z,2165.63
2018-03-31T07:54:39.888Z,2160.00
2018-03-31T07:55:40.302Z,2176.88
2018-03-31T07:56:39.849Z,1957.50
2018-03-31T07:57:39.763Z,1811.25
2018-03-31T07:58:39.870Z,1462.50
2018-03-31T07:59:39.936Z,1591.88
2018-03-31T08:00:39.597Z,2008.13
2018-03-31T08:01:39.655Z,2250.00
2018-03-31T08:02:39.564Z,1586.25
2018-03-31T08:03:39.702Z,2210.63
2018-03-31T08:04:39.501Z,2441.25
2018-03-31T08:05:39.413Z,1867.50
2018-03-31T08:06:39.673Z,2514.38
2018-03-31T08:07:39.634Z,2463.75
2018-03-31T08:08:39.442Z,2610.00
2018-03-31T08:09:39.305Z,2379.38
2018-03-31T08:10:39.217Z,2536.88
2018-03-31T08:11:39.230Z,2295.00
2018-03-31T08:12:39.293Z,2491.88
2018-03-31T08:13:39.402Z,2379.38
2018-03-31T08:14:39.218Z,2497.50
2018-03-31T08:15:39.029Z,2508.75
2018-03-31T08:16:39.048Z,2598.75
2018-03-31T08:17:39.054Z,2621.25
2018-03-31T08:18:38.969Z,2458.13
2018-03-31T08:19:38.926Z,2036.25
2018-03-31T08:20:39.138Z,1293.75
2018-03-31T08:21:38.999Z,1355.63
2018-03-31T08:22:38.767Z,1260.00
2018-03-31T08:23:38.776Z,2536.88
2018-03-31T08:24:38.803Z,2722.50
2018-03-31T08:25:38.652Z,2283.75
2018-03-31T08:26:38.672Z,1462.50
2018-03-31T08:27:38.893Z,1698.75
2018-03-31T08:28:38.604Z,1496.25
2018-03-31T08:29:38.663Z,1254.38
2018-03-31T08:30:38.476Z,1209.38
2018-03-31T08:31:38.489Z,1237.50
2018-03-31T08:32:38.401Z,1428.75
2018-03-31T08:33:38.516Z,2137.50
2018-03-31T08:34:38.677Z,3245.63
2018-03-31T08:35:38.279Z,3425.63
2018-03-31T08:36:38.393Z,2745.00
2018-03-31T08:37:38.204Z,1822.50
2018-03-31T08:38:38.217Z,1726.88
2018-03-31T08:39:38.186Z,2351.25
2018-03-31T08:40:38.094Z,2536.88
2018-03-31T08:41:38.406Z,1563.75
2018-03-31T08:42:38.018Z,1490.63
2018-03-31T08:43:38.033Z,1473.75
2018-03-31T08:44:38.145Z,1479.38
2018-03-31T08:45:37.911Z,1490.63
2018-03-31T08:46:37.923Z,1563.75
2018-03-31T08:47:38.134Z,1501.88
2018-03-31T08:48:37.849Z,1518.75
2018-03-31T08:49:38.060Z,1541.25
2018-03-31T08:50:37.775Z,1580.63
2018-03-31T08:51:37.745Z,1665.00
2018-03-31T08:52:37.659Z,1749.38
2018-03-31T08:53:38.072Z,3240.00
2018-03-31T08:54:37.636Z,1912.50
2018-03-31T08:55:37.850Z,1890.00
2018-03-31T08:56:38.601Z,2441.25
2018-03-31T08:57:38.285Z,2688.75
2018-03-31T08:58:38.091Z,3363.75
2018-03-31T08:59:37.945Z,3757.50
2018-03-31T09:00:37.842Z,3470.63
2018-03-31T09:01:39.515Z,2745.00
2018-03-31T09:02:37.704Z,3065.63
2018-03-31T09:03:37.946Z,2998.13
2018-03-31T09:04:37.674Z,2801.25
2018-03-31T09:05:37.743Z,2863.13
2018-03-31T09:06:38.216Z,2880.00
2018-03-31T09:07:37.489Z,2778.75
2018-03-31T09:08:37.677Z,1406.25
2018-03-31T09:10:37.107Z,1040.63
2018-03-31T09:11:37.550Z,1040.63
2018-03-31T09:12:37.106Z,1068.75
2018-03-31T09:13:37.028Z,1215.00
2018-03-31T09:14:37.330Z,1068.75
2018-03-31T09:15:36.939Z,1040.63
2018-03-31T09:16:36.984Z,1085.63
2018-03-31T09:17:36.956Z,1203.75
2018-03-31T09:18:37.222Z,1237.50
2018-03-31T09:19:37.319Z,2272.50
2018-03-31T09:20:37.026Z,2137.50
2018-03-31T09:21:36.976Z,2480.63
2018-03-31T09:22:36.672Z,2728.13
2018-03-31T09:23:36.585Z,2739.38
2018-03-31T09:24:36.687Z,2835.00
2018-03-31T09:25:36.751Z,2604.38
2018-03-31T09:26:36.463Z,2570.63
2018-03-31T09:27:36.476Z,2553.75
2018-03-31T09:28:36.388Z,2593.13
2018-03-31T09:29:36.749Z,2716.88
2018-03-31T09:30:36.269Z,3200.63
2018-03-31T09:31:36.348Z,3459.38
2018-03-31T09:32:36.505Z,3442.50
2018-03-31T09:33:36.219Z,3740.63
2018-03-31T09:34:36.183Z,3380.63
2018-03-31T09:35:36.097Z,3763.13
2018-03-31T09:36:36.163Z,4089.38
2018-03-31T09:37:36.241Z,3560.63
2018-03-31T09:38:36.048Z,3870.00
2018-03-31T09:39:36.362Z,3768.75
2018-03-31T09:40:35.916Z,3965.63
2018-03-31T09:41:35.934Z,3684.38
2018-03-31T09:42:35.855Z,3729.38
2018-03-31T09:43:35.918Z,4033.13
2018-03-31T09:44:35.996Z,4066.88
2018-03-31T09:45:35.756Z,4089.38
2018-03-31T09:46:36.553Z,4089.38
2018-03-31T09:47:36.227Z,4185.00
2018-03-31T09:48:36.126Z,3971.25
2018-03-31T09:49:36.138Z,3616.88
2018-03-31T09:50:35.965Z,1985.63
2018-03-31T09:51:36.080Z,3611.25
2018-03-31T09:52:35.723Z,2323.13
2018-03-31T09:53:36.029Z,1327.50
2018-03-31T09:54:35.706Z,3594.38
2018-03-31T09:55:35.566Z,3538.13
2018-03-31T09:56:35.581Z,2683.13
2018-03-31T09:57:35.540Z,2975.63
2018-03-31T09:58:35.947Z,1620.00
2018-03-31T09:59:35.493Z,4331.25
2018-03-31T10:00:35.712Z,4348.13
2018-03-31T10:01:35.355Z,4381.88
2018-03-31T10:02:35.504Z,4404.38
2018-03-31T10:03:35.339Z,4297.50
2018-03-31T10:04:35.407Z,4595.63
2018-03-31T10:05:35.228Z,4618.13
2018-03-31T10:06:35.748Z,4505.63
2018-03-31T10:07:35.332Z,4134.38
2018-03-31T10:08:35.353Z,1704.38
2018-03-31T10:09:35.405Z,1350.00
2018-03-31T10:10:35.268Z,1344.38
2018-03-31T10:11:35.309Z,1372.50
2018-03-31T10:12:35.512Z,1473.75
2018-03-31T10:13:35.183Z,2666.25
2018-03-31T10:14:35.269Z,1828.13
2018-03-31T10:15:35.016Z,2053.13
2018-03-31T10:16:35.046Z,3847.50
2018-03-31T10:17:34.819Z,3510.00
2018-03-31T10:18:35.031Z,2851.88
2018-03-31T10:19:34.747Z,1563.75
2018-03-31T10:20:34.661Z,3082.50
2018-03-31T10:21:34.835Z,3386.25
2018-03-31T10:22:34.747Z,1783.13
2018-03-31T10:23:34.563Z,1569.38
2018-03-31T10:24:34.830Z,1980.00
2018-03-31T10:25:34.495Z,4207.50
2018-03-31T10:26:34.516Z,4145.63
2018-03-31T10:27:34.734Z,4162.50
2018-03-31T10:28:34.392Z,4185.00
2018-03-31T10:29:34.405Z,4258.13
2018-03-31T10:30:34.635Z,4106.25
2018-03-31T10:31:34.376Z,4106.25
2018-03-31T10:32:34.331Z,2188.13
2018-03-31T10:33:34.229Z,1575.00
2018-03-31T10:34:34.500Z,1591.88
2018-03-31T10:35:34.168Z,3414.38
2018-03-31T10:36:34.294Z,3420.00
2018-03-31T10:37:34.507Z,3296.25
2018-03-31T10:38:34.127Z,2109.38
2018-03-31T10:39:34.206Z,3526.88
2018-03-31T10:40:34.015Z,4033.13
2018-03-31T10:41:34.038Z,4089.38
2018-03-31T10:42:34.115Z,3920.63
2018-03-31T10:43:33.973Z,3611.25
2018-03-31T10:44:34.380Z,2295.00
2018-03-31T10:45:33.845Z,2323.13
2018-03-31T10:46:33.965Z,3234.38
2018-03-31T10:47:33.833Z,3262.50
2018-03-31T10:48:33.954Z,2390.63
2018-03-31T10:49:33.921Z,1822.50
2018-03-31T10:50:33.694Z,1530.00
2018-03-31T10:51:34.064Z,1434.38
2018-03-31T10:52:33.835Z,1468.13
2018-03-31T10:53:33.644Z,1597.50
2018-03-31T10:54:33.612Z,3076.88
2018-03-31T10:55:33.529Z,3937.50
2018-03-31T10:56:33.648Z,4078.13
2018-03-31T10:57:33.463Z,4224.38
2018-03-31T10:58:33.879Z,4016.25
2018-03-31T10:59:33.453Z,3988.13
2018-03-31T11:00:33.373Z,3999.38
2018-03-31T11:01:33.393Z,3948.75
2018-03-31T11:02:33.320Z,4021.88
2018-03-31T11:03:33.325Z,4021.88
2018-03-31T11:04:33.347Z,3909.38
2018-03-31T11:05:33.530Z,3931.88
2018-03-31T11:06:33.231Z,3886.88
2018-03-31T11:07:33.148Z,3161.25
2018-03-31T11:08:33.169Z,4072.50
2018-03-31T11:09:33.293Z,3898.13
2018-03-31T11:10:33.057Z,2030.63
2018-03-31T11:11:33.075Z,4044.38
2018-03-31T11:12:33.308Z,4325.63
2018-03-31T11:13:33.014Z,4353.75
2018-03-31T11:14:32.987Z,4573.13
2018-03-31T11:15:32.902Z,4584.38
2018-03-31T11:16:32.912Z,4471.88
2018-03-31T11:17:32.832Z,4415.63
2018-03-31T11:18:33.105Z,4365.00
2018-03-31T11:19:32.859Z,4173.75
2018-03-31T11:20:32.798Z,4443.75
2018-03-31T11:21:32.770Z,4567.50
2018-03-31T11:22:32.696Z,4730.63
2018-03-31T11:23:32.811Z,4719.38
2018-03-31T11:24:32.984Z,4505.63
2018-03-31T11:25:32.603Z,4595.63
2018-03-31T11:26:32.677Z,4230.00
2018-03-31T11:27:32.557Z,1591.88
2018-03-31T11:28:32.578Z,1434.38
2018-03-31T11:29:32.541Z,1563.75
2018-03-31T11:30:32.768Z,3346.88
2018-03-31T11:31:32.437Z,3971.25
2018-03-31T11:32:32.427Z,1867.50
2018-03-31T11:33:32.439Z,1451.25
2018-03-31T11:34:32.464Z,1400.63
2018-03-31T11:35:32.329Z,3836.25
2018-03-31T11:36:32.605Z,3735.00
2018-03-31T11:37:32.271Z,2081.25
2018-03-31T11:38:32.286Z,2205.00
2018-03-31T11:39:32.257Z,1485.00
2018-03-31T11:40:32.216Z,1575.00
2018-03-31T11:41:32.281Z,3712.50
2018-03-31T11:42:32.400Z,1625.63
2018-03-31T11:43:32.126Z,2430.00
2018-03-31T11:44:32.235Z,2587.50
2018-03-31T11:45:32.152Z,2773.13
2018-03-31T11:46:32.020Z,3549.38
2018-03-31T11:47:31.947Z,2238.75
2018-03-31T11:48:32.219Z,2486.25
2018-03-31T11:49:31.934Z,1513.13
2018-03-31T11:50:31.952Z,3043.13
2018-03-31T11:51:32.024Z,3690.00
2018-03-31T11:52:31.787Z,1518.75
2018-03-31T11:53:31.853Z,1181.25
2018-03-31T11:54:31.920Z,1203.75
2018-03-31T11:55:31.989Z,1496.25
2018-03-31T11:56:31.703Z,3397.50
2018-03-31T11:57:31.629Z,4095.00
2018-03-31T11:58:31.643Z,3172.50
2018-03-31T11:59:31.621Z,2379.38
2018-03-31T12:00:31.581Z,3993.75
2018-03-31T12:01:31.595Z,1704.38
2018-03-31T12:02:31.757Z,1350.00
2018-03-31T12:03:31.478Z,1231.88
2018-03-31T12:04:31.439Z,1288.13
2018-03-31T12:05:31.558Z,2683.13
2018-03-31T12:06:31.374Z,1321.88
2018-03-31T12:07:31.288Z,1136.25
2018-03-31T12:08:31.402Z,1091.25
2018-03-31T12:09:31.716Z,1040.63
2018-03-31T12:10:31.231Z,1012.50
2018-03-31T12:11:31.200Z,995.63
2018-03-31T12:12:31.130Z,1001.25
2018-03-31T12:13:31.140Z,1080.00
2018-03-31T12:14:31.305Z,950.63
2018-03-31T12:15:31.115Z,939.38
2018-03-31T12:16:31.282Z,945.00
2018-03-31T12:17:30.982Z,939.38
2018-03-31T12:18:31.163Z,928.13
2018-03-31T12:19:30.876Z,950.63
2018-03-31T12:20:30.877Z,1023.75
2018-03-31T12:21:30.837Z,1175.63
2018-03-31T12:22:30.756Z,2272.50
2018-03-31T12:23:31.273Z,3729.38
2018-03-31T12:24:30.674Z,3870.00
2018-03-31T12:25:30.688Z,3993.75
2018-03-31T12:26:30.652Z,4038.75
2018-03-31T12:27:30.666Z,3999.38
2018-03-31T12:28:30.834Z,3825.00
2018-03-31T12:29:30.503Z,3189.38
2018-03-31T12:30:30.811Z,3459.38
2018-03-31T12:31:30.626Z,3442.50
2018-03-31T12:32:30.449Z,3082.50
2018-03-31T12:33:30.471Z,2413.13
2018-03-31T12:34:30.340Z,1333.13
2018-03-31T12:35:30.394Z,1231.88
2018-03-31T12:36:30.682Z,1192.50
2018-03-31T12:37:30.237Z,1243.13
2018-03-31T12:38:30.261Z,1400.63
2018-03-31T12:39:30.174Z,1485.00